sensor_id;sensor_type;location;lat;lon;timestamp;P1;P2;P0
35654;PMS1003;21773;50.010;19.972;2023-11-19T00:01:23;28.80;26.60;21.40
35654;PMS1003;21773;50.010;19.972;2023-11-19T00:04:28;29.00;25.60;20.60
35654;PMS1003;21773;50.010;19.972;2023-11-19T00:07:32;28.25;25.75;20.00
35654;PMS1003;21773;50.010;19.972;2023-11-19T00:10:36;24.40;21.60;16.80
35654;PMS1003;21773;50.010;19.972;2023-11-19T00:13:39;29.40;26.40;21.00
35654;PMS1003;21773;50.010;19.972;2023-11-19T00:16:42;26.67;24.67;20.67
35654;PMS1003;21773;50.010;19.972;2023-11-19T00:19:47;29.00;26.00;21.60
35654;PMS1003;21773;50.010;19.972;2023-11-19T00:22:52;26.00;24.67;20.00
35654;PMS1003;21773;50.010;19.972;2023-11-19T00:25:55;23.50;23.00;19.00
35654;PMS1003;21773;50.010;19.972;2023-11-19T00:28:59;25.50;24.00;19.25
35654;PMS1003;21773;50.010;19.972;2023-11-19T00:32:02;30.00;28.00;22.00
35654;PMS1003;21773;50.010;19.972;2023-11-19T00:35:08;28.20;26.20;20.20
35654;PMS1003;21773;50.010;19.972;2023-11-19T00:38:12;25.00;23.75;20.75
35654;PMS1003;21773;50.010;19.972;2023-11-19T00:41:15;22.40;21.80;18.80
35654;PMS1003;21773;50.010;19.972;2023-11-19T00:44:19;27.80;25.00;20.00
35654;PMS1003;21773;50.010;19.972;2023-11-19T00:47:23;25.80;22.60;16.60
35654;PMS1003;21773;50.010;19.972;2023-11-19T00:50:28;27.50;24.00;20.00
35654;PMS1003;21773;50.010;19.972;2023-11-19T00:53:35;27.80;25.80;20.80
35654;PMS1003;21773;50.010;19.972;2023-11-19T00:56:38;24.80;23.00;19.00
35654;PMS1003;21773;50.010;19.972;2023-11-19T00:59:41;25.20;23.00;20.00
35654;PMS1003;21773;50.010;19.972;2023-11-19T01:02:45;23.80;20.00;17.20
35654;PMS1003;21773;50.010;19.972;2023-11-19T01:05:49;22.60;20.40;18.00
35654;PMS1003;21773;50.010;19.972;2023-11-19T01:08:55;26.00;25.00;20.00
35654;PMS1003;21773;50.010;19.972;2023-11-19T01:11:58;27.80;25.40;20.40
35654;PMS1003;21773;50.010;19.972;2023-11-19T01:15:02;24.00;22.40;20.00
35654;PMS1003;21773;50.010;19.972;2023-11-19T01:18:06;29.20;27.40;22.60
35654;PMS1003;21773;50.010;19.972;2023-11-19T01:21:13;23.40;21.00;18.00
35654;PMS1003;21773;50.010;19.972;2023-11-19T01:24:16;25.00;22.00;18.00
35654;PMS1003;21773;50.010;19.972;2023-11-19T01:27:19;29.75;24.75;20.00
35654;PMS1003;21773;50.010;19.972;2023-11-19T01:30:22;24.60;21.40;18.00
35654;PMS1003;21773;50.010;19.972;2023-11-19T01:33:26;24.40;23.40;20.00
35654;PMS1003;21773;50.010;19.972;2023-11-19T01:36:31;24.50;22.50;20.00
35654;PMS1003;21773;50.010;19.972;2023-11-19T01:39:34;25.00;23.00;19.00
35654;PMS1003;21773;50.010;19.972;2023-11-19T01:42:37;24.80;22.40;19.40
35654;PMS1003;21773;50.010;19.972;2023-11-19T01:45:40;21.00;18.00;16.00
35654;PMS1003;21773;50.010;19.972;2023-11-19T01:48:44;29.00;26.00;22.00
35654;PMS1003;21773;50.010;19.972;2023-11-19T01:51:49;27.20;23.20;20.00
35654;PMS1003;21773;50.010;19.972;2023-11-19T01:54:53;26.00;24.75;20.50
35654;PMS1003;21773;50.010;19.972;2023-11-19T01:57:58;25.00;22.20;20.00
35654;PMS1003;21773;50.010;19.972;2023-11-19T02:01:04;27.00;24.00;20.00
35654;PMS1003;21773;50.010;19.972;2023-11-19T02:04:09;25.50;23.00;20.00
35654;PMS1003;21773;50.010;19.972;2023-11-19T02:07:14;23.00;22.00;19.00
35654;PMS1003;21773;50.010;19.972;2023-11-19T02:10:19;24.20;21.80;18.80
35654;PMS1003;21773;50.010;19.972;2023-11-19T02:13:22;28.40;27.40;22.40
35654;PMS1003;21773;50.010;19.972;2023-11-19T02:16:26;28.00;26.00;21.50
35654;PMS1003;21773;50.010;19.972;2023-11-19T02:19:30;35.20;31.00;24.80
35654;PMS1003;21773;50.010;19.972;2023-11-19T02:22:35;23.60;22.80;19.00
35654;PMS1003;21773;50.010;19.972;2023-11-19T02:25:38;22.00;21.00;18.50
35654;PMS1003;21773;50.010;19.972;2023-11-19T02:28:44;29.25;27.25;21.75
35654;PMS1003;21773;50.010;19.972;2023-11-19T02:31:48;29.40;25.00;21.00
35654;PMS1003;21773;50.010;19.972;2023-11-19T02:34:51;25.80;23.80;20.00
35654;PMS1003;21773;50.010;19.972;2023-11-19T02:37:54;24.50;23.75;19.75
35654;PMS1003;21773;50.010;19.972;2023-11-19T02:40:58;32.00;28.40;22.00
35654;PMS1003;21773;50.010;19.972;2023-11-19T02:44:05;28.75;24.50;21.50
35654;PMS1003;21773;50.010;19.972;2023-11-19T02:47:09;27.80;26.00;20.20
35654;PMS1003;21773;50.010;19.972;2023-11-19T02:50:12;25.25;23.25;19.25
35654;PMS1003;21773;50.010;19.972;2023-11-19T02:53:16;28.50;26.50;21.50
35654;PMS1003;21773;50.010;19.972;2023-11-19T02:56:19;24.40;23.00;20.00
35654;PMS1003;21773;50.010;19.972;2023-11-19T02:59:29;29.20;26.00;21.80
35654;PMS1003;21773;50.010;19.972;2023-11-19T03:02:41;26.40;22.00;18.00
35654;PMS1003;21773;50.010;19.972;2023-11-19T03:05:48;28.00;26.00;21.00
35654;PMS1003;21773;50.010;19.972;2023-11-19T03:08:51;29.25;27.50;22.00
35654;PMS1003;21773;50.010;19.972;2023-11-19T03:11:54;29.50;25.50;21.50
35654;PMS1003;21773;50.010;19.972;2023-11-19T03:14:59;31.50;30.00;23.00
35654;PMS1003;21773;50.010;19.972;2023-11-19T03:18:02;30.00;30.00;22.00
35654;PMS1003;21773;50.010;19.972;2023-11-19T03:21:06;30.00;28.00;23.00
35654;PMS1003;21773;50.010;19.972;2023-11-19T03:24:09;32.50;28.50;23.00
35654;PMS1003;21773;50.010;19.972;2023-11-19T03:27:12;32.50;28.50;22.00
35654;PMS1003;21773;50.010;19.972;2023-11-19T03:30:19;33.00;30.00;23.00
35654;PMS1003;21773;50.010;19.972;2023-11-19T03:33:34;31.00;28.20;22.00
35654;PMS1003;21773;50.010;19.972;2023-11-19T03:36:37;36.20;31.80;24.00
35654;PMS1003;21773;50.010;19.972;2023-11-19T03:39:41;32.00;29.40;23.00
35654;PMS1003;21773;50.010;19.972;2023-11-19T03:42:44;28.00;27.00;21.40
35654;PMS1003;21773;50.010;19.972;2023-11-19T03:45:49;27.50;26.50;21.50
35654;PMS1003;21773;50.010;19.972;2023-11-19T03:48:52;32.40;28.20;22.00
35654;PMS1003;21773;50.010;19.972;2023-11-19T03:51:55;32.00;28.60;22.00
35654;PMS1003;21773;50.010;19.972;2023-11-19T03:54:59;33.20;27.00;21.00
35654;PMS1003;21773;50.010;19.972;2023-11-19T03:58:02;31.00;27.00;22.00
35654;PMS1003;21773;50.010;19.972;2023-11-19T04:01:07;30.25;27.50;22.00
35654;PMS1003;21773;50.010;19.972;2023-11-19T04:04:14;35.00;30.60;24.00
35654;PMS1003;21773;50.010;19.972;2023-11-19T04:07:17;28.00;24.20;20.00
35654;PMS1003;21773;50.010;19.972;2023-11-19T04:10:21;34.40;30.60;23.60
35654;PMS1003;21773;50.010;19.972;2023-11-19T04:13:24;31.60;29.00;23.00
35654;PMS1003;21773;50.010;19.972;2023-11-19T04:16:29;33.50;30.00;23.00
35654;PMS1003;21773;50.010;19.972;2023-11-19T04:19:32;32.00;29.00;23.00
35654;PMS1003;21773;50.010;19.972;2023-11-19T04:22:35;33.60;30.00;23.00
35654;PMS1003;21773;50.010;19.972;2023-11-19T04:25:38;35.50;32.00;24.00
35654;PMS1003;21773;50.010;19.972;2023-11-19T04:28:41;39.40;32.00;25.00
35654;PMS1003;21773;50.010;19.972;2023-11-19T04:31:46;31.25;27.50;22.00
35654;PMS1003;21773;50.010;19.972;2023-11-19T04:34:49;40.20;32.00;24.00
35654;PMS1003;21773;50.010;19.972;2023-11-19T04:37:53;35.25;31.00;22.75
35654;PMS1003;21773;50.010;19.972;2023-11-19T04:40:58;33.00;30.00;23.80
35654;PMS1003;21773;50.010;19.972;2023-11-19T04:44:02;30.60;27.60;21.20
35654;PMS1003;21773;50.010;19.972;2023-11-19T04:47:06;34.75;30.50;23.00
35654;PMS1003;21773;50.010;19.972;2023-11-19T04:50:10;35.67;31.67;23.00
35654;PMS1003;21773;50.010;19.972;2023-11-19T04:53:13;39.00;33.20;26.00
35654;PMS1003;21773;50.010;19.972;2023-11-19T04:56:17;34.00;32.00;25.00
35654;PMS1003;21773;50.010;19.972;2023-11-19T04:59:21;37.60;32.00;24.00
35654;PMS1003;21773;50.010;19.972;2023-11-19T05:02:25;39.00;33.00;26.67
35654;PMS1003;21773;50.010;19.972;2023-11-19T05:05:28;36.00;32.40;26.00
35654;PMS1003;21773;50.010;19.972;2023-11-19T05:08:32;36.50;32.50;25.50
35654;PMS1003;21773;50.010;19.972;2023-11-19T05:11:35;37.00;32.00;25.00
35654;PMS1003;21773;50.010;19.972;2023-11-19T05:14:52;31.20;29.20;22.00
35654;PMS1003;21773;50.010;19.972;2023-11-19T05:17:56;39.00;33.40;25.80
35654;PMS1003;21773;50.010;19.972;2023-11-19T05:20:59;37.00;33.00;24.60
35654;PMS1003;21773;50.010;19.972;2023-11-19T05:24:03;33.75;30.00;23.75
35654;PMS1003;21773;50.010;19.972;2023-11-19T05:27:07;37.50;31.25;23.00
35654;PMS1003;21773;50.010;19.972;2023-11-19T05:30:10;35.60;31.40;23.60
35654;PMS1003;21773;50.010;19.972;2023-11-19T05:33:15;34.40;32.00;25.00
35654;PMS1003;21773;50.010;19.972;2023-11-19T05:36:18;36.25;29.25;21.75
35654;PMS1003;21773;50.010;19.972;2023-11-19T05:39:21;34.20;30.20;23.00
35654;PMS1003;21773;50.010;19.972;2023-11-19T05:42:24;38.20;32.80;24.80
35654;PMS1003;21773;50.010;19.972;2023-11-19T05:45:29;41.00;35.00;26.50
35654;PMS1003;21773;50.010;19.972;2023-11-19T05:48:33;39.50;31.25;24.25
35654;PMS1003;21773;50.010;19.972;2023-11-19T05:51:37;43.40;34.60;27.00
35654;PMS1003;21773;50.010;19.972;2023-11-19T05:54:40;34.40;31.00;24.00
35654;PMS1003;21773;50.010;19.972;2023-11-19T05:57:43;32.00;30.00;23.00
35654;PMS1003;21773;50.010;19.972;2023-11-19T06:00:47;33.00;28.75;23.00
35654;PMS1003;21773;50.010;19.972;2023-11-19T06:03:53;36.00;31.00;23.00
35654;PMS1003;21773;50.010;19.972;2023-11-19T06:06:57;33.60;29.40;23.00
35654;PMS1003;21773;50.010;19.972;2023-11-19T06:10:00;35.60;31.00;23.00
35654;PMS1003;21773;50.010;19.972;2023-11-19T06:13:04;36.00;30.75;23.00
35654;PMS1003;21773;50.010;19.972;2023-11-19T06:16:08;33.80;29.20;23.00
35654;PMS1003;21773;50.010;19.972;2023-11-19T06:19:12;31.00;28.00;22.00
35654;PMS1003;21773;50.010;19.972;2023-11-19T06:22:15;33.60;29.60;22.40
35654;PMS1003;21773;50.010;19.972;2023-11-19T06:25:19;38.00;32.50;24.00
35654;PMS1003;21773;50.010;19.972;2023-11-19T06:28:22;36.00;31.00;24.00
35654;PMS1003;21773;50.010;19.972;2023-11-19T06:31:25;37.00;32.00;24.00
35654;PMS1003;21773;50.010;19.972;2023-11-19T06:34:30;38.40;31.00;24.00
35654;PMS1003;21773;50.010;19.972;2023-11-19T06:37:34;41.20;34.00;27.00
35654;PMS1003;21773;50.010;19.972;2023-11-19T06:40:38;39.00;33.00;26.00
35654;PMS1003;21773;50.010;19.972;2023-11-19T06:43:42;37.00;32.00;24.00
35654;PMS1003;21773;50.010;19.972;2023-11-19T06:46:46;37.00;31.80;24.00
35654;PMS1003;21773;50.010;19.972;2023-11-19T06:49:52;34.20;29.60;22.40
35654;PMS1003;21773;50.010;19.972;2023-11-19T06:52:55;32.75;29.75;23.00
35654;PMS1003;21773;50.010;19.972;2023-11-19T06:55:58;41.00;33.00;25.00
35654;PMS1003;21773;50.010;19.972;2023-11-19T06:59:02;36.50;32.25;24.25
35654;PMS1003;21773;50.010;19.972;2023-11-19T07:02:05;39.00;32.80;24.20
35654;PMS1003;21773;50.010;19.972;2023-11-19T07:05:10;40.00;32.00;24.50
35654;PMS1003;21773;50.010;19.972;2023-11-19T07:08:14;37.00;32.00;26.00
35654;PMS1003;21773;50.010;19.972;2023-11-19T07:11:18;37.60;32.00;24.00
35654;PMS1003;21773;50.010;19.972;2023-11-19T07:14:21;35.60;31.80;24.00
35654;PMS1003;21773;50.010;19.972;2023-11-19T07:17:25;32.80;30.20;23.00
35654;PMS1003;21773;50.010;19.972;2023-11-19T07:20:30;31.00;30.00;23.00
35654;PMS1003;21773;50.010;19.972;2023-11-19T07:23:34;30.33;27.67;22.00
35654;PMS1003;21773;50.010;19.972;2023-11-19T07:26:40;30.60;27.00;21.00
35654;PMS1003;21773;50.010;19.972;2023-11-19T07:29:45;31.40;26.00;20.00
35654;PMS1003;21773;50.010;19.972;2023-11-19T07:32:48;26.60;25.60;21.00
35654;PMS1003;21773;50.010;19.972;2023-11-19T07:35:52;30.50;29.50;23.00
35654;PMS1003;21773;50.010;19.972;2023-11-19T07:38:55;33.75;29.00;23.00
35654;PMS1003;21773;50.010;19.972;2023-11-19T07:41:59;28.33;26.00;21.00
35654;PMS1003;21773;50.010;19.972;2023-11-19T07:45:02;27.00;24.00;19.75
35654;PMS1003;21773;50.010;19.972;2023-11-19T07:48:07;26.20;25.20;20.00
35654;PMS1003;21773;50.010;19.972;2023-11-19T07:51:12;26.60;24.60;20.00
35654;PMS1003;21773;50.010;19.972;2023-11-19T07:54:17;28.33;24.00;20.00
35654;PMS1003;21773;50.010;19.972;2023-11-19T07:57:23;30.00;26.00;22.00
35654;PMS1003;21773;50.010;19.972;2023-11-19T08:00:29;30.40;27.80;22.00
35654;PMS1003;21773;50.010;19.972;2023-11-19T08:03:32;28.25;24.00;20.00
35654;PMS1003;21773;50.010;19.972;2023-11-19T08:06:38;23.25;21.00;18.25
35654;PMS1003;21773;50.010;19.972;2023-11-19T08:09:41;25.00;23.00;19.40
35654;PMS1003;21773;50.010;19.972;2023-11-19T08:12:44;22.00;21.00;18.00
35654;PMS1003;21773;50.010;19.972;2023-11-19T08:15:48;18.60;18.00;15.40
35654;PMS1003;21773;50.010;19.972;2023-11-19T08:18:51;24.00;23.40;20.00
35654;PMS1003;21773;50.010;19.972;2023-11-19T08:21:55;20.00;19.00;15.00
35654;PMS1003;21773;50.010;19.972;2023-11-19T08:24:58;18.00;17.00;14.60
35654;PMS1003;21773;50.010;19.972;2023-11-19T08:28:02;18.50;17.50;15.00
35654;PMS1003;21773;50.010;19.972;2023-11-19T08:31:05;19.00;16.75;14.00
35654;PMS1003;21773;50.010;19.972;2023-11-19T08:34:09;19.00;17.00;15.00
35654;PMS1003;21773;50.010;19.972;2023-11-19T08:37:13;16.00;15.80;13.80
35654;PMS1003;21773;50.010;19.972;2023-11-19T08:40:16;19.60;18.40;16.00
35654;PMS1003;21773;50.010;19.972;2023-11-19T08:43:20;14.60;13.60;10.60
35654;PMS1003;21773;50.010;19.972;2023-11-19T08:46:25;19.50;17.50;14.50
35654;PMS1003;21773;50.010;19.972;2023-11-19T08:49:28;19.60;18.00;16.00
35654;PMS1003;21773;50.010;19.972;2023-11-19T08:52:32;16.40;16.40;14.00
35654;PMS1003;21773;50.010;19.972;2023-11-19T08:55:36;17.40;15.40;13.00
35654;PMS1003;21773;50.010;19.972;2023-11-19T08:58:39;22.00;19.40;16.40
35654;PMS1003;21773;50.010;19.972;2023-11-19T09:01:42;17.00;15.40;13.20
35654;PMS1003;21773;50.010;19.972;2023-11-19T09:04:46;19.40;18.60;15.20
35654;PMS1003;21773;50.010;19.972;2023-11-19T09:07:53;22.50;21.50;19.50
35654;PMS1003;21773;50.010;19.972;2023-11-19T09:10:56;20.60;18.60;16.00
35654;PMS1003;21773;50.010;19.972;2023-11-19T09:13:59;20.50;18.75;17.50
35654;PMS1003;21773;50.010;19.972;2023-11-19T09:17:02;20.80;19.80;16.00
35654;PMS1003;21773;50.010;19.972;2023-11-19T09:20:06;20.25;18.25;16.25
35654;PMS1003;21773;50.010;19.972;2023-11-19T09:23:12;21.00;19.00;17.00
35654;PMS1003;21773;50.010;19.972;2023-11-19T09:26:15;21.00;19.00;16.75
35654;PMS1003;21773;50.010;19.972;2023-11-19T09:29:18;25.25;21.25;19.25
35654;PMS1003;21773;50.010;19.972;2023-11-19T09:32:22;22.25;18.00;15.00
35654;PMS1003;21773;50.010;19.972;2023-11-19T09:35:26;22.40;21.40;19.40
35654;PMS1003;21773;50.010;19.972;2023-11-19T09:38:30;23.60;22.00;20.00
35654;PMS1003;21773;50.010;19.972;2023-11-19T09:41:34;21.20;19.00;17.80
35654;PMS1003;21773;50.010;19.972;2023-11-19T09:44:38;16.60;16.60;15.00
35654;PMS1003;21773;50.010;19.972;2023-11-19T09:47:42;22.60;21.00;18.00
35654;PMS1003;21773;50.010;19.972;2023-11-19T09:50:46;21.25;19.50;17.00
35654;PMS1003;21773;50.010;19.972;2023-11-19T09:53:52;20.00;18.00;16.00
35654;PMS1003;21773;50.010;19.972;2023-11-19T09:56:55;22.80;19.80;17.40
35654;PMS1003;21773;50.010;19.972;2023-11-19T10:00:05;23.00;21.40;19.40
35654;PMS1003;21773;50.010;19.972;2023-11-19T10:03:09;20.00;18.75;16.75
35654;PMS1003;21773;50.010;19.972;2023-11-19T10:06:15;21.80;20.00;18.00
35654;PMS1003;21773;50.010;19.972;2023-11-19T10:09:21;20.40;16.80;15.20
35654;PMS1003;21773;50.010;19.972;2023-11-19T10:12:25;18.00;17.00;15.00
35654;PMS1003;21773;50.010;19.972;2023-11-19T10:15:29;20.25;17.00;14.25
35654;PMS1003;21773;50.010;19.972;2023-11-19T10:18:42;22.00;19.40;17.40
35654;PMS1003;21773;50.010;19.972;2023-11-19T10:21:47;17.40;17.40;15.20
35654;PMS1003;21773;50.010;19.972;2023-11-19T10:24:52;17.00;16.00;14.00
35654;PMS1003;21773;50.010;19.972;2023-11-19T10:27:57;19.00;18.00;15.00
35654;PMS1003;21773;50.010;19.972;2023-11-19T10:31:00;20.75;18.00;16.00
35654;PMS1003;21773;50.010;19.972;2023-11-19T10:34:03;19.00;18.33;16.00
35654;PMS1003;21773;50.010;19.972;2023-11-19T10:37:07;17.40;14.00;12.80
35654;PMS1003;21773;50.010;19.972;2023-11-19T10:40:12;13.20;12.20;10.80
35654;PMS1003;21773;50.010;19.972;2023-11-19T10:43:15;16.80;15.20;13.80
35654;PMS1003;21773;50.010;19.972;2023-11-19T10:46:18;13.00;12.60;11.00
35654;PMS1003;21773;50.010;19.972;2023-11-19T10:49:24;17.40;16.40;13.40
35654;PMS1003;21773;50.010;19.972;2023-11-19T10:52:28;18.00;15.00;13.00
35654;PMS1003;21773;50.010;19.972;2023-11-19T10:55:33;18.20;16.00;14.00
35654;PMS1003;21773;50.010;19.972;2023-11-19T10:58:37;14.80;12.80;11.00
35654;PMS1003;21773;50.010;19.972;2023-11-19T11:01:48;11.00;11.00;10.00
35654;PMS1003;21773;50.010;19.972;2023-11-19T11:04:53;13.80;13.00;11.20
35654;PMS1003;21773;50.010;19.972;2023-11-19T11:07:58;14.00;12.40;11.00
35654;PMS1003;21773;50.010;19.972;2023-11-19T11:11:04;12.00;11.00;10.00
35654;PMS1003;21773;50.010;19.972;2023-11-19T11:14:10;13.80;12.80;11.00
35654;PMS1003;21773;50.010;19.972;2023-11-19T11:17:16;12.00;11.60;10.00
35654;PMS1003;21773;50.010;19.972;2023-11-19T11:20:20;15.80;13.80;12.00
35654;PMS1003;21773;50.010;19.972;2023-11-19T11:23:29;16.00;13.00;11.00
35654;PMS1003;21773;50.010;19.972;2023-11-19T11:27:01;15.00;14.00;12.00
35654;PMS1003;21773;50.010;19.972;2023-11-19T11:30:22;14.80;14.00;13.00
35654;PMS1003;21773;50.010;19.972;2023-11-19T11:33:36;16.50;15.50;14.00
35654;PMS1003;21773;50.010;19.972;2023-11-19T11:37:06;14.00;14.00;12.00
35654;PMS1003;21773;50.010;19.972;2023-11-19T11:40:20;16.00;15.00;14.00
35654;PMS1003;21773;50.010;19.972;2023-11-19T11:43:45;15.00;15.00;13.00
35654;PMS1003;21773;50.010;19.972;2023-11-19T11:46:56;16.20;14.80;12.20
35654;PMS1003;21773;50.010;19.972;2023-11-19T11:50:03;17.00;15.00;14.00
35654;PMS1003;21773;50.010;19.972;2023-11-19T11:53:15;15.80;14.40;13.40
35654;PMS1003;21773;50.010;19.972;2023-11-19T11:56:19;10.00;10.00;8.00
35654;PMS1003;21773;50.010;19.972;2023-11-19T11:59:24;13.00;11.00;10.00
35654;PMS1003;21773;50.010;19.972;2023-11-19T12:02:27;12.00;11.00;10.40
35654;PMS1003;21773;50.010;19.972;2023-11-19T12:05:31;13.00;11.50;10.00
35654;PMS1003;21773;50.010;19.972;2023-11-19T12:08:35;14.00;13.50;11.50
35654;PMS1003;21773;50.010;19.972;2023-11-19T12:11:46;13.25;13.00;12.00
35654;PMS1003;21773;50.010;19.972;2023-11-19T12:15:01;15.80;14.20;13.20
35654;PMS1003;21773;50.010;19.972;2023-11-19T12:18:07;11.00;11.00;10.00
35654;PMS1003;21773;50.010;19.972;2023-11-19T12:21:11;12.00;11.00;10.40
35654;PMS1003;21773;50.010;19.972;2023-11-19T12:24:14;8.50;8.00;6.50
35654;PMS1003;21773;50.010;19.972;2023-11-19T12:27:18;13.00;12.75;11.00
35654;PMS1003;21773;50.010;19.972;2023-11-19T12:30:25;12.00;11.00;10.40
35654;PMS1003;21773;50.010;19.972;2023-11-19T12:33:30;10.00;9.00;8.33
35654;PMS1003;21773;50.010;19.972;2023-11-19T12:36:33;11.40;11.00;10.40
35654;PMS1003;21773;50.010;19.972;2023-11-19T12:39:37;11.20;10.00;9.20
35654;PMS1003;21773;50.010;19.972;2023-11-19T12:42:42;10.00;9.00;8.00
35654;PMS1003;21773;50.010;19.972;2023-11-19T12:45:46;10.00;10.00;9.00
35654;PMS1003;21773;50.010;19.972;2023-11-19T12:48:50;11.00;10.50;9.50
35654;PMS1003;21773;50.010;19.972;2023-11-19T12:51:53;11.00;10.20;10.00
35654;PMS1003;21773;50.010;19.972;2023-11-19T12:54:57;9.67;9.67;8.67
35654;PMS1003;21773;50.010;19.972;2023-11-19T12:58:00;11.25;11.25;10.00
35654;PMS1003;21773;50.010;19.972;2023-11-19T13:01:05;9.00;9.00;8.50
35654;PMS1003;21773;50.010;19.972;2023-11-19T13:04:17;11.60;10.60;9.60
35654;PMS1003;21773;50.010;19.972;2023-11-19T13:07:21;14.00;13.00;13.00
35654;PMS1003;21773;50.010;19.972;2023-11-19T13:10:24;14.00;13.50;12.00
35654;PMS1003;21773;50.010;19.972;2023-11-19T13:13:27;13.60;12.00;10.60
35654;PMS1003;21773;50.010;19.972;2023-11-19T13:16:32;13.20;12.40;11.40
35654;PMS1003;21773;50.010;19.972;2023-11-19T13:19:35;13.00;13.00;12.00
35654;PMS1003;21773;50.010;19.972;2023-11-19T13:22:38;14.75;13.75;13.75
35654;PMS1003;21773;50.010;19.972;2023-11-19T13:25:42;15.60;14.20;13.80
35654;PMS1003;21773;50.010;19.972;2023-11-19T13:28:45;16.00;14.40;13.00
35654;PMS1003;21773;50.010;19.972;2023-11-19T13:31:50;14.00;13.60;13.00
35654;PMS1003;21773;50.010;19.972;2023-11-19T13:34:53;9.75;8.75;8.00
35654;PMS1003;21773;50.010;19.972;2023-11-19T13:37:56;13.40;12.40;11.40
35654;PMS1003;21773;50.010;19.972;2023-11-19T13:40:59;13.00;12.00;12.00
35654;PMS1003;21773;50.010;19.972;2023-11-19T13:44:02;12.00;12.00;11.00
35654;PMS1003;21773;50.010;19.972;2023-11-19T13:47:07;13.80;12.60;11.60
35654;PMS1003;21773;50.010;19.972;2023-11-19T13:50:13;15.60;14.60;13.00
35654;PMS1003;21773;50.010;19.972;2023-11-19T13:53:17;13.25;13.00;12.00
35654;PMS1003;21773;50.010;19.972;2023-11-19T13:56:20;16.00;15.00;13.60
35654;PMS1003;21773;50.010;19.972;2023-11-19T13:59:23;16.00;15.00;14.00
35654;PMS1003;21773;50.010;19.972;2023-11-19T14:02:27;17.00;17.00;15.00
35654;PMS1003;21773;50.010;19.972;2023-11-19T14:05:31;15.25;15.00;13.25
35654;PMS1003;21773;50.010;19.972;2023-11-19T14:08:37;15.00;13.00;12.00
35654;PMS1003;21773;50.010;19.972;2023-11-19T14:11:40;14.00;12.00;11.00
35654;PMS1003;21773;50.010;19.972;2023-11-19T14:14:43;13.80;11.80;9.80
35654;PMS1003;21773;50.010;19.972;2023-11-19T14:17:48;13.00;13.00;11.00
35654;PMS1003;21773;50.010;19.972;2023-11-19T14:20:51;14.50;14.00;12.25
35654;PMS1003;21773;50.010;19.972;2023-11-19T14:23:54;14.60;13.80;13.40
35654;PMS1003;21773;50.010;19.972;2023-11-19T14:26:57;11.50;11.00;9.50
35654;PMS1003;21773;50.010;19.972;2023-11-19T14:30:00;12.60;12.40;11.00
35654;PMS1003;21773;50.010;19.972;2023-11-19T14:33:05;14.00;14.00;12.00
35654;PMS1003;21773;50.010;19.972;2023-11-19T14:36:09;13.60;11.60;10.60
35654;PMS1003;21773;50.010;19.972;2023-11-19T14:39:13;14.80;13.80;13.00
35654;PMS1003;21773;50.010;19.972;2023-11-19T14:42:16;14.25;13.50;12.50
35654;PMS1003;21773;50.010;19.972;2023-11-19T14:45:19;15.00;13.60;11.60
35654;PMS1003;21773;50.010;19.972;2023-11-19T14:48:24;13.00;12.67;11.67
35654;PMS1003;21773;50.010;19.972;2023-11-19T14:51:27;16.00;15.00;13.50
35654;PMS1003;21773;50.010;19.972;2023-11-19T14:54:31;17.00;15.00;14.00
35654;PMS1003;21773;50.010;19.972;2023-11-19T14:57:34;18.00;15.60;13.60
35654;PMS1003;21773;50.010;19.972;2023-11-19T15:00:37;20.00;19.00;16.00
35654;PMS1003;21773;50.010;19.972;2023-11-19T15:03:42;17.60;17.00;15.40
35654;PMS1003;21773;50.010;19.972;2023-11-19T15:06:49;20.40;17.40;14.40
35654;PMS1003;21773;50.010;19.972;2023-11-19T15:09:53;19.00;17.20;15.00
35654;PMS1003;21773;50.010;19.972;2023-11-19T15:12:56;16.20;15.80;14.40
35654;PMS1003;21773;50.010;19.972;2023-11-19T15:15:59;19.60;18.60;16.40
35654;PMS1003;21773;50.010;19.972;2023-11-19T15:19:04;20.00;19.00;17.00
35654;PMS1003;21773;50.010;19.972;2023-11-19T15:22:07;20.60;19.60;17.40
35654;PMS1003;21773;50.010;19.972;2023-11-19T15:25:13;19.80;19.40;17.40
35654;PMS1003;21773;50.010;19.972;2023-11-19T15:28:16;22.60;21.60;18.60
35654;PMS1003;21773;50.010;19.972;2023-11-19T15:31:20;22.40;19.60;18.00
35654;PMS1003;21773;50.010;19.972;2023-11-19T15:34:25;23.50;22.50;20.00
35654;PMS1003;21773;50.010;19.972;2023-11-19T15:37:28;25.00;23.00;20.00
35654;PMS1003;21773;50.010;19.972;2023-11-19T15:40:32;24.00;21.00;18.00
35654;PMS1003;21773;50.010;19.972;2023-11-19T15:43:35;24.00;22.60;19.60
35654;PMS1003;21773;50.010;19.972;2023-11-19T15:46:39;20.00;20.00;17.20
35654;PMS1003;21773;50.010;19.972;2023-11-19T15:49:44;21.75;20.75;17.25
35654;PMS1003;21773;50.010;19.972;2023-11-19T15:52:50;19.40;18.00;16.00
35654;PMS1003;21773;50.010;19.972;2023-11-19T15:55:53;17.60;17.00;14.60
35654;PMS1003;21773;50.010;19.972;2023-11-19T15:58:56;20.00;18.60;16.60
35654;PMS1003;21773;50.010;19.972;2023-11-19T16:01:59;21.25;19.25;17.25
35654;PMS1003;21773;50.010;19.972;2023-11-19T16:05:04;21.75;20.75;17.00
35654;PMS1003;21773;50.010;19.972;2023-11-19T16:08:14;21.00;20.00;18.00
35654;PMS1003;21773;50.010;19.972;2023-11-19T16:11:18;21.20;19.80;17.00
35654;PMS1003;21773;50.010;19.972;2023-11-19T16:14:21;21.60;20.00;17.60
35654;PMS1003;21773;50.010;19.972;2023-11-19T16:17:25;21.60;21.00;19.00
35654;PMS1003;21773;50.010;19.972;2023-11-19T16:20:32;23.75;23.00;20.00
35654;PMS1003;21773;50.010;19.972;2023-11-19T16:23:36;26.00;24.40;20.00
35654;PMS1003;21773;50.010;19.972;2023-11-19T16:26:39;23.80;22.80;19.80
35654;PMS1003;21773;50.010;19.972;2023-11-19T16:29:42;25.80;23.80;20.00
35654;PMS1003;21773;50.010;19.972;2023-11-19T16:32:48;28.00;24.00;20.00
35654;PMS1003;21773;50.010;19.972;2023-11-19T16:35:56;25.80;24.80;20.80
35654;PMS1003;21773;50.010;19.972;2023-11-19T16:39:00;26.40;26.00;22.00
35654;PMS1003;21773;50.010;19.972;2023-11-19T16:42:06;26.80;24.00;20.00
35654;PMS1003;21773;50.010;19.972;2023-11-19T16:45:09;28.00;26.50;22.00
35654;PMS1003;21773;50.010;19.972;2023-11-19T16:48:12;28.50;26.50;22.00
35654;PMS1003;21773;50.010;19.972;2023-11-19T16:51:17;25.40;24.40;20.40
35654;PMS1003;21773;50.010;19.972;2023-11-19T16:54:20;28.50;25.50;21.00
35654;PMS1003;21773;50.010;19.972;2023-11-19T16:57:23;21.40;19.20;17.40
35654;PMS1003;21773;50.010;19.972;2023-11-19T17:00:29;26.60;25.00;21.00